createdAt,value
2023-05-19T00:00:57.277Z,100023.77
2023-05-19T00:03:24.380Z,100029.97
2023-05-19T00:05:53.126Z,100032.67
2023-05-19T00:08:20.115Z,100031.99
2023-05-19T00:10:47.491Z,100032.66
2023-05-19T00:13:14.729Z,100032.91
2023-05-19T00:15:42.045Z,100032.42
2023-05-19T00:18:09.425Z,100032.27
2023-05-19T00:20:37.528Z,100036.39
2023-05-19T00:23:04.278Z,100040.66
2023-05-19T00:25:31.306Z,100043.48
2023-05-19T00:27:58.860Z,100048.54
2023-05-19T00:30:26.247Z,100047.79
2023-05-19T00:32:53.525Z,100049.14
2023-05-19T00:35:21.224Z,100049.15
2023-05-19T00:37:48.270Z,100049.72
2023-05-19T00:40:15.130Z,100050.23
2023-05-19T00:42:42.094Z,100053.13
2023-05-19T00:45:09.664Z,100054.86
2023-05-19T00:47:36.786Z,100053.23
2023-05-19T00:50:04.486Z,100052.59
2023-05-19T00:52:31.543Z,100047.16
2023-05-19T00:54:58.829Z,100048.83
2023-05-19T00:57:26.669Z,100049.06
2023-05-19T00:59:53.535Z,100047.55
2023-05-19T01:02:20.900Z,100044.50
2023-05-19T01:04:48.336Z,100049.59
2023-05-19T01:07:18.157Z,100050.40
2023-05-19T01:09:45.479Z,100046.45
2023-05-19T01:12:12.985Z,100045.64
2023-05-19T01:14:40.344Z,100038.67
2023-05-19T01:17:41.876Z,100038.48
2023-05-19T01:20:15.856Z,100039.15
2023-05-19T01:22:45.437Z,100037.04
2023-05-19T01:25:31.097Z,100040.14
2023-05-19T01:28:09.769Z,100037.28
2023-05-19T01:30:40.467Z,100039.66
2023-05-19T01:33:09.081Z,100036.82
2023-05-19T01:35:37.709Z,100040.86
2023-05-19T01:38:04.970Z,100041.91
2023-05-19T01:40:32.157Z,100038.67
2023-05-19T01:42:59.929Z,100036.30
2023-05-19T01:45:29.837Z,100036.48
2023-05-19T01:47:58.871Z,100035.69
2023-05-19T01:50:25.859Z,100039.14
2023-05-19T01:52:52.819Z,100033.37
2023-05-19T01:55:20.796Z,100037.02
2023-05-19T01:58:17.114Z,100038.38
2023-05-19T02:01:19.810Z,100039.89
2023-05-19T02:04:23.850Z,100040.87
2023-05-19T02:06:53.361Z,100046.30
2023-05-19T02:09:32.283Z,100050.62
2023-05-19T02:12:01.911Z,100049.63
2023-05-19T02:14:28.972Z,100048.58
2023-05-19T02:16:56.950Z,100049.55
2023-05-19T02:19:25.826Z,100051.81
2023-05-19T02:21:54.047Z,100054.67
2023-05-19T02:24:22.243Z,100059.05
2023-05-19T02:26:50.104Z,100053.95
2023-05-19T02:29:19.467Z,100064.27
2023-05-19T02:31:46.570Z,100068.56
2023-05-19T02:34:13.501Z,100065.63
2023-05-19T02:36:42.559Z,100070.50
2023-05-19T02:39:10.419Z,100069.59
2023-05-19T02:41:38.149Z,100071.02
2023-05-19T02:44:05.165Z,100074.13
2023-05-19T02:46:32.201Z,100070.46
2023-05-19T02:48:59.223Z,100071.06
2023-05-19T02:51:26.324Z,100067.09
2023-05-19T02:53:53.273Z,100068.05
2023-05-19T02:56:21.135Z,100066.20
2023-05-19T02:58:47.940Z,100072.21
2023-05-19T03:01:15.290Z,100079.31
2023-05-19T03:03:42.475Z,100076.54
2023-05-19T03:06:09.407Z,100077.66
2023-05-19T03:08:36.737Z,100076.76
2023-05-19T03:11:03.537Z,100081.23
2023-05-19T03:13:31.339Z,100080.91
2023-05-19T03:15:58.636Z,100082.17
2023-05-19T03:18:26.008Z,100085.54
2023-05-19T03:20:55.908Z,100084.85
2023-05-19T03:23:22.855Z,100084.55
2023-05-19T03:25:50.256Z,100087.42
2023-05-19T03:28:18.093Z,100089.42
2023-05-19T03:30:45.815Z,100089.25
2023-05-19T03:33:17.406Z,100089.75
2023-05-19T03:35:44.735Z,100091.80
2023-05-19T03:38:12.402Z,100097.14
2023-05-19T03:40:40.902Z,100092.27
2023-05-19T03:43:09.593Z,100091.90
2023-05-19T03:45:42.095Z,100093.16
2023-05-19T03:48:32.656Z,100091.67
2023-05-19T03:51:22.128Z,100092.63
2023-05-19T03:53:50.530Z,100091.54
2023-05-19T03:56:20.181Z,100089.30
2023-05-19T03:58:47.666Z,100092.48
2023-05-19T04:01:15.031Z,100092.27
2023-05-19T04:03:41.967Z,100089.59
2023-05-19T04:06:08.977Z,100087.59
2023-05-19T04:08:36.916Z,100088.35
2023-05-19T04:11:03.893Z,100094.16
2023-05-19T04:13:34.218Z,100091.96
2023-05-19T04:16:01.144Z,100095.23
2023-05-19T04:18:29.149Z,100096.63
2023-05-19T04:20:56.378Z,100096.20
2023-05-19T04:23:23.214Z,100091.01
2023-05-19T04:25:50.303Z,100091.99
2023-05-19T04:28:17.522Z,100094.70
2023-05-19T04:30:46.138Z,100094.45
2023-05-19T04:33:13.599Z,100097.53
2023-05-19T04:35:40.883Z,100100.71
2023-05-19T04:38:09.543Z,100100.81
2023-05-19T04:40:39.759Z,100099.73
2023-05-19T04:43:06.810Z,100096.83
2023-05-19T04:45:33.927Z,100097.27
2023-05-19T04:48:02.158Z,100092.38
2023-05-19T04:50:31.882Z,100091.27
2023-05-19T04:52:59.176Z,100093.80
2023-05-19T04:55:26.580Z,100095.84
2023-05-19T04:57:53.706Z,100097.34
2023-05-19T05:00:21.232Z,100093.50
2023-05-19T05:03:04.575Z,100097.96
2023-05-19T05:05:32.288Z,100095.29
2023-05-19T05:07:59.139Z,100097.52
2023-05-19T05:10:27.825Z,100099.46
2023-05-19T05:12:55.390Z,100103.16
2023-05-19T05:15:23.772Z,100099.83
2023-05-19T05:17:51.612Z,100101.13
2023-05-19T05:20:19.313Z,100102.80
2023-05-19T05:22:46.957Z,100104.45
2023-05-19T05:25:15.801Z,100107.42
2023-05-19T05:27:43.401Z,100107.52
2023-05-19T05:30:10.907Z,100106.29
2023-05-19T05:32:39.276Z,100108.70
2023-05-19T05:35:10.674Z,100107.45
2023-05-19T05:37:38.662Z,100108.65
2023-05-19T05:40:06.592Z,100107.73
2023-05-19T05:42:33.622Z,100105.30
2023-05-19T05:45:00.405Z,100106.59
2023-05-19T05:47:27.778Z,100107.21
2023-05-19T05:49:55.296Z,100105.05
2023-05-19T05:52:22.492Z,100108.02
2023-05-19T05:54:50.210Z,100110.23
2023-05-19T05:57:18.616Z,100110.79
2023-05-19T05:59:46.590Z,100116.38
2023-05-19T06:02:13.668Z,100112.27
2023-05-19T06:04:40.556Z,100114.81
2023-05-19T06:07:07.788Z,100111.52
2023-05-19T06:09:39.756Z,100115.98
2023-05-19T06:12:07.683Z,100119.35
2023-05-19T06:14:42.016Z,100124.12
2023-05-19T06:17:16.327Z,100123.80
2023-05-19T06:19:43.382Z,100121.42
2023-05-19T06:22:10.346Z,100126.09
2023-05-19T06:24:39.466Z,100123.90
2023-05-19T06:27:08.838Z,100126.52
2023-05-19T06:29:35.740Z,100127.02
2023-05-19T06:32:03.934Z,100129.47
2023-05-19T06:34:31.710Z,100127.30
2023-05-19T06:36:58.762Z,100125.45
2023-05-19T06:39:25.742Z,100132.40
2023-05-19T06:41:52.490Z,100126.80
2023-05-19T06:44:38.057Z,100125.36
2023-05-19T06:47:09.221Z,100130.36
2023-05-19T06:49:37.238Z,100129.92
2023-05-19T06:52:04.862Z,100132.33
2023-05-19T06:54:31.800Z,100130.63
2023-05-19T06:56:58.751Z,100133.38
2023-05-19T06:59:25.734Z,100137.39
2023-05-19T07:01:53.138Z,100140.86
2023-05-19T07:04:19.993Z,100142.12
2023-05-19T07:06:47.308Z,100139.44
2023-05-19T07:09:14.324Z,100141.70
2023-05-19T07:11:41.941Z,100144.44
2023-05-19T07:14:10.174Z,100146.41
2023-05-19T07:16:37.050Z,100142.85
2023-05-19T07:19:05.514Z,100139.90
2023-05-19T07:21:33.016Z,100143.41
2023-05-19T07:24:00.157Z,100144.97
2023-05-19T07:26:28.508Z,100144.64
2023-05-19T07:28:55.335Z,100145.41
2023-05-19T07:31:22.108Z,100141.87
2023-05-19T07:33:49.101Z,100140.64
2023-05-19T07:36:16.951Z,100141.65
2023-05-19T07:38:47.586Z,100143.64
2023-05-19T07:41:14.536Z,100141.29
2023-05-19T07:43:42.488Z,100144.36
2023-05-19T07:46:09.500Z,100145.91
2023-05-19T07:48:38.335Z,100146.64
2023-05-19T07:51:05.353Z,100144.21
2023-05-19T07:53:32.331Z,100143.76
2023-05-19T07:55:59.267Z,100141.70
2023-05-19T07:58:26.236Z,100139.45
2023-05-19T08:00:53.083Z,100138.15
2023-05-19T08:03:20.121Z,100144.23
2023-05-19T08:05:47.286Z,100141.67
2023-05-19T08:08:18.919Z,100137.52
2023-05-19T08:10:46.100Z,100133.09
2023-05-19T08:13:13.011Z,100134.87
2023-05-19T08:15:40.672Z,100134.92
2023-05-19T08:18:12.328Z,100135.03
2023-05-19T08:20:39.328Z,100137.05
2023-05-19T08:23:06.493Z,100133.36
2023-05-19T08:25:33.335Z,100139.41
2023-05-19T08:28:00.638Z,100134.77
2023-05-19T08:30:27.955Z,100135.23
2023-05-19T08:32:54.965Z,100137.64
2023-05-19T08:35:21.970Z,100128.51
2023-05-19T08:37:49.009Z,100141.11
2023-05-19T08:40:16.994Z,100131.41
2023-05-19T08:42:45.325Z,100134.77
2023-05-19T08:45:12.526Z,100130.41
2023-05-19T08:47:43.154Z,100130.35
2023-05-19T08:50:10.491Z,100127.23
2023-05-19T08:52:51.858Z,100129.17
2023-05-19T08:55:58.452Z,100122.05
2023-05-19T08:58:26.867Z,100120.62
2023-05-19T09:00:55.921Z,100119.77
2023-05-19T09:03:23.774Z,100115.55
2023-05-19T09:05:51.436Z,100114.90
2023-05-19T09:08:18.439Z,100115.89
2023-05-19T09:10:45.785Z,100110.98
2023-05-19T09:13:12.516Z,100109.14
2023-05-19T09:15:41.015Z,100106.33
2023-05-19T09:18:11.993Z,100106.45
2023-05-19T09:20:39.596Z,100106.06
2023-05-19T09:23:07.824Z,100113.77
2023-05-19T09:25:53.069Z,100107.48
2023-05-19T09:28:34.554Z,100112.95
2023-05-19T09:31:05.421Z,100108.80
2023-05-19T09:33:37.779Z,100107.02
2023-05-19T09:36:06.024Z,100102.84
2023-05-19T09:38:33.128Z,100093.78
2023-05-19T09:41:00.396Z,100098.40
2023-05-19T09:43:35.036Z,100099.58
2023-05-19T09:46:12.150Z,100109.34
2023-05-19T09:48:41.779Z,100104.65
2023-05-19T09:51:11.288Z,100101.13
2023-05-19T09:53:38.364Z,100099.16
2023-05-19T09:56:05.696Z,100097.43
2023-05-19T09:58:36.776Z,100097.40
2023-05-19T10:01:04.388Z,100098.00
2023-05-19T10:03:34.820Z,100101.55
2023-05-19T10:06:03.415Z,100102.29
2023-05-19T10:08:31.410Z,100108.75
2023-05-19T10:10:58.507Z,100104.38
2023-05-19T10:13:26.016Z,100103.30
2023-05-19T10:18:23.912Z,100107.08
2023-05-19T10:20:50.968Z,100106.25
2023-05-19T10:23:18.918Z,100105.80
2023-05-19T10:25:45.855Z,100105.11
2023-05-19T10:28:14.421Z,100102.19
2023-05-19T10:30:44.497Z,100103.36
2023-05-19T10:33:16.845Z,100103.87
2023-05-19T10:35:50.738Z,100099.32
2023-05-19T10:38:56.195Z,100094.23
2023-05-19T10:42:02.050Z,100089.20
2023-05-19T10:44:53.531Z,100092.58
2023-05-19T10:47:26.734Z,100092.61
2023-05-19T10:49:53.810Z,100089.64
2023-05-19T10:52:29.009Z,100084.34
2023-05-19T10:54:55.999Z,100077.46
2023-05-19T10:57:27.460Z,100077.48
2023-05-19T10:59:55.840Z,100076.60
2023-05-19T11:02:38.963Z,100077.08
2023-05-19T11:05:17.573Z,100076.49
2023-05-19T11:07:54.587Z,100078.31
2023-05-19T11:10:24.675Z,100076.07
2023-05-19T11:15:18.920Z,100080.38
2023-05-19T11:17:47.922Z,100074.75
2023-05-19T11:20:25.199Z,100077.67
2023-05-19T11:23:09.123Z,100072.39
2023-05-19T11:25:50.680Z,100074.52
2023-05-19T11:28:18.807Z,100074.44
2023-05-19T11:30:49.816Z,100072.20
2023-05-19T11:33:20.343Z,100068.73
2023-05-19T11:35:49.292Z,100070.56
2023-05-19T11:38:20.078Z,100072.92
2023-05-19T11:40:49.076Z,100072.30
2023-05-19T11:43:16.101Z,100072.59
2023-05-19T11:45:43.078Z,100072.45
2023-05-19T11:48:13.595Z,100078.02
2023-05-19T11:50:41.020Z,100080.31
2023-05-19T11:53:07.923Z,100079.08
2023-05-19T11:55:34.912Z,100081.57
2023-05-19T11:58:05.522Z,100081.48
2023-05-19T12:00:38.630Z,100076.15
2023-05-19T12:03:05.937Z,100072.87
2023-05-19T12:05:39.913Z,100076.35
2023-05-19T12:08:09.815Z,100077.05
2023-05-19T12:10:37.738Z,100075.28
2023-05-19T12:13:05.714Z,100077.02
2023-05-19T12:15:33.457Z,100080.46
2023-05-19T12:18:01.421Z,100084.71
2023-05-19T12:20:31.493Z,100084.88
2023-05-19T12:22:58.881Z,100079.83
2023-05-19T12:25:25.950Z,100079.98
2023-05-19T12:27:58.125Z,100084.90
2023-05-19T12:30:28.196Z,100077.03
2023-05-19T12:32:57.029Z,100074.84
2023-05-19T12:35:32.993Z,100073.79
2023-05-19T12:38:06.309Z,100074.55
2023-05-19T12:40:34.640Z,100071.36
2023-05-19T12:43:01.991Z,100061.99
2023-05-19T12:45:31.841Z,100056.16
2023-05-19T12:47:59.008Z,100062.89
2023-05-19T12:50:30.660Z,100063.38
2023-05-19T12:52:59.241Z,100059.19
2023-05-19T12:55:26.262Z,100058.35
2023-05-19T12:57:59.136Z,100061.77
2023-05-19T13:00:28.336Z,100058.47
2023-05-19T13:03:00.963Z,100066.73
2023-05-19T13:05:28.734Z,100069.46
2023-05-19T13:08:01.680Z,100070.27
2023-05-19T13:10:29.122Z,100069.35
2023-05-19T13:12:56.448Z,100070.63
2023-05-19T13:15:24.580Z,100067.88
2023-05-19T13:17:51.797Z,100063.83
2023-05-19T13:20:19.436Z,100061.20
2023-05-19T13:22:47.704Z,100070.38
2023-05-19T13:25:14.597Z,100068.40
2023-05-19T13:27:41.655Z,100074.70
2023-05-19T13:30:09.167Z,100073.46
2023-05-19T13:32:39.250Z,100074.59
2023-05-19T13:35:06.648Z,100074.45
2023-05-19T13:37:33.532Z,100071.90
2023-05-19T13:40:00.950Z,100069.95
2023-05-19T13:42:27.746Z,100072.04
2023-05-19T13:44:55.910Z,100075.13
2023-05-19T13:47:23.114Z,100077.02
2023-05-19T13:49:50.796Z,100079.45
2023-05-19T13:52:18.298Z,100083.05
2023-05-19T13:54:45.119Z,100081.74
2023-05-19T13:57:11.958Z,100087.32
2023-05-19T13:59:45.854Z,100091.92
2023-05-19T14:02:16.201Z,100096.27
2023-05-19T14:04:43.254Z,100091.19
2023-05-19T14:07:10.221Z,100091.63
2023-05-19T14:09:37.241Z,100091.37
2023-05-19T14:12:05.545Z,100092.96
2023-05-19T14:14:33.658Z,100093.02
2023-05-19T14:17:00.666Z,100093.49
2023-05-19T14:19:29.576Z,100094.53
2023-05-19T14:21:57.023Z,100090.94
2023-05-19T14:24:23.869Z,100095.80
2023-05-19T14:26:51.124Z,100091.67
2023-05-19T14:29:18.255Z,100092.75
2023-05-19T14:31:45.162Z,100093.19
2023-05-19T14:34:12.385Z,100095.66
2023-05-19T14:36:39.274Z,100093.08
2023-05-19T14:39:06.075Z,100091.38
2023-05-19T14:41:33.483Z,100092.35
2023-05-19T14:44:00.256Z,100092.92
2023-05-19T14:46:27.093Z,100094.13
2023-05-19T14:48:54.200Z,100096.11
2023-05-19T14:51:21.250Z,100092.98
2023-05-19T14:53:49.717Z,100097.86
2023-05-19T14:56:16.684Z,100098.86
2023-05-19T14:58:43.623Z,100101.25
2023-05-19T15:01:10.428Z,100100.41
2023-05-19T15:03:38.154Z,100101.80
2023-05-19T15:06:09.804Z,100097.60
2023-05-19T15:08:37.270Z,100098.52
2023-05-19T15:11:04.322Z,100099.33
2023-05-19T15:13:31.186Z,100096.52
2023-05-19T15:16:12.276Z,100100.39
2023-05-19T15:18:43.239Z,100100.73
2023-05-19T15:21:10.241Z,100101.82
2023-05-19T15:23:37.116Z,100106.91
2023-05-19T15:26:03.982Z,100109.44
2023-05-19T15:28:31.524Z,100105.30
2023-05-19T15:30:58.450Z,100110.09
2023-05-19T15:33:25.359Z,100112.09
2023-05-19T15:35:52.644Z,100106.85
2023-05-19T15:38:19.607Z,100113.07
2023-05-19T15:40:46.762Z,100117.16
2023-05-19T15:43:13.820Z,100117.09
2023-05-19T15:45:40.813Z,100121.02
2023-05-19T15:48:08.205Z,100121.65
2023-05-19T15:50:36.065Z,100124.33
2023-05-19T15:53:03.386Z,100124.96
2023-05-19T15:55:30.270Z,100125.73
2023-05-19T15:57:57.127Z,100133.61
2023-05-19T16:00:23.859Z,100138.80
2023-05-19T16:02:51.222Z,100138.75
2023-05-19T16:05:18.258Z,100135.30
2023-05-19T16:07:45.354Z,100136.71
2023-05-19T16:10:12.259Z,100135.60
2023-05-19T16:12:39.222Z,100135.88
2023-05-19T16:15:06.778Z,100140.42
2023-05-19T16:17:34.311Z,100137.84
2023-05-19T16:20:01.166Z,100141.95
2023-05-19T16:22:29.639Z,100145.98
2023-05-19T16:24:56.487Z,100149.20
2023-05-19T16:27:23.336Z,100149.44
2023-05-19T16:29:50.113Z,100153.25
2023-05-19T16:32:17.060Z,100150.75
2023-05-19T16:34:44.035Z,100154.27
2023-05-19T16:37:10.738Z,100159.21
2023-05-19T16:39:37.810Z,100155.13
2023-05-19T16:42:04.730Z,100161.11
2023-05-19T16:44:32.472Z,100159.82
2023-05-19T16:46:59.382Z,100157.31
2023-05-19T16:49:26.307Z,100161.11
2023-05-19T16:51:53.783Z,100157.25
2023-05-19T16:54:21.061Z,100156.34
2023-05-19T16:56:49.001Z,100163.34
2023-05-19T16:59:16.676Z,100164.33
2023-05-19T17:01:43.866Z,100164.61
2023-05-19T17:04:11.170Z,100166.78
2023-05-19T17:06:37.945Z,100165.44
2023-05-19T17:09:04.970Z,100168.09
2023-05-19T17:11:32.147Z,100171.36
2023-05-19T17:13:59.008Z,100174.35
2023-05-19T17:16:25.770Z,100176.64
2023-05-19T17:18:53.038Z,100178.83
2023-05-19T17:21:20.036Z,100180.25
2023-05-19T17:23:46.922Z,100176.76
2023-05-19T17:26:15.374Z,100178.27
2023-05-19T17:28:42.520Z,100180.68
2023-05-19T17:31:11.310Z,100180.80
2023-05-19T17:33:38.595Z,100186.65
2023-05-19T17:36:06.137Z,100188.02
2023-05-19T17:38:33.100Z,100185.97
2023-05-19T17:41:09.034Z,100192.48
2023-05-19T17:43:36.818Z,100195.67
2023-05-19T17:46:04.816Z,100192.80
2023-05-19T17:48:32.154Z,100195.41
2023-05-19T17:50:59.062Z,100197.29
2023-05-19T17:53:26.624Z,100200.31
2023-05-19T17:55:57.596Z,100198.74
2023-05-19T17:58:25.501Z,100198.20
2023-05-19T18:00:53.354Z,100199.61
2023-05-19T18:03:23.313Z,100200.91
2023-05-19T18:05:51.129Z,100203.45
2023-05-19T18:08:18.635Z,100201.27
2023-05-19T18:10:47.877Z,100205.08
2023-05-19T18:13:14.688Z,100206.13
2023-05-19T18:15:41.821Z,100205.23
2023-05-19T18:18:10.337Z,100207.54
2023-05-19T18:20:43.575Z,100207.90
2023-05-19T18:23:10.794Z,100210.11
2023-05-19T18:25:37.911Z,100211.23
2023-05-19T18:28:04.889Z,100206.55
2023-05-19T18:30:32.278Z,100202.34
2023-05-19T18:33:02.852Z,100201.13
2023-05-19T18:35:30.259Z,100201.40
2023-05-19T18:37:57.227Z,100203.34
2023-05-19T18:40:24.110Z,100208.32
2023-05-19T18:42:51.063Z,100204.85
2023-05-19T18:45:18.137Z,100206.09
2023-05-19T18:47:46.020Z,100208.17
2023-05-19T18:50:13.853Z,100208.70
2023-05-19T18:52:41.017Z,100206.75
2023-05-19T18:55:08.697Z,100209.33
2023-05-19T18:57:35.963Z,100212.45
2023-05-19T19:00:03.722Z,100215.05
2023-05-19T19:02:31.173Z,100216.52
2023-05-19T19:04:58.251Z,100217.42
2023-05-19T19:07:27.316Z,100218.20
2023-05-19T19:09:54.088Z,100217.80
2023-05-19T19:12:20.910Z,100218.21
2023-05-19T19:14:48.209Z,100221.08
2023-05-19T19:17:15.407Z,100218.31
2023-05-19T19:19:42.544Z,100216.89
2023-05-19T19:22:09.513Z,100220.30
2023-05-19T19:24:36.792Z,100217.44
2023-05-19T19:27:04.106Z,100215.83
2023-05-19T19:29:31.643Z,100217.52
2023-05-19T19:31:58.599Z,100213.55
2023-05-19T19:34:25.827Z,100215.45
2023-05-19T19:36:52.772Z,100212.52
2023-05-19T19:39:19.722Z,100214.02
2023-05-19T19:41:46.561Z,100212.22
2023-05-19T19:44:13.544Z,100217.48
2023-05-19T19:46:40.507Z,100218.66
2023-05-19T19:49:07.914Z,100218.92
2023-05-19T19:51:35.396Z,100219.52
2023-05-19T19:54:02.220Z,100219.14
2023-05-19T19:56:29.746Z,100216.73
2023-05-19T19:58:58.835Z,100218.62
2023-05-19T20:01:28.802Z,100222.28
2023-05-19T20:03:56.444Z,100221.88
2023-05-19T20:06:23.308Z,100218.19
2023-05-19T20:08:50.220Z,100219.55
2023-05-19T20:11:17.277Z,100218.80
2023-05-19T20:13:44.126Z,100216.66
2023-05-19T20:16:11.219Z,100214.46
2023-05-19T20:18:38.919Z,100213.27
2023-05-19T20:21:05.811Z,100217.00
2023-05-19T20:23:32.720Z,100217.88
2023-05-19T20:26:10.994Z,100224.54
2023-05-19T20:28:38.905Z,100226.61
2023-05-19T20:31:05.848Z,100235.30
2023-05-19T20:33:32.641Z,100227.52
2023-05-19T20:35:59.542Z,100233.34
2023-05-19T20:38:26.223Z,100235.56
2023-05-19T20:40:53.853Z,100234.00
2023-05-19T20:43:20.871Z,100233.77
2023-05-19T20:45:47.762Z,100236.40
2023-05-19T20:48:17.801Z,100234.67
2023-05-19T20:50:45.349Z,100235.21
2023-05-19T20:53:12.423Z,100233.16
2023-05-19T20:55:39.301Z,100233.73
2023-05-19T20:58:06.315Z,100234.55
2023-05-19T21:00:33.534Z,100237.83
2023-05-19T21:03:01.265Z,100236.32
2023-05-19T21:05:28.421Z,100236.12
2023-05-19T21:07:57.586Z,100238.60
2023-05-19T21:10:24.306Z,100237.24
2023-05-19T21:12:51.117Z,100235.49
2023-05-19T21:15:18.126Z,100231.10
2023-05-19T21:17:46.134Z,100233.09
2023-05-19T21:20:13.265Z,100237.20
2023-05-19T21:22:40.481Z,100234.20
2023-05-19T21:25:08.004Z,100234.82
2023-05-19T21:27:35.953Z,100230.27
2023-05-19T21:30:02.915Z,100235.27
2023-05-19T21:32:30.873Z,100231.15
2023-05-19T21:34:58.024Z,100232.21
2023-05-19T21:37:24.996Z,100234.38
2023-05-19T21:39:51.968Z,100233.64
2023-05-19T21:42:18.827Z,100238.32
2023-05-19T21:44:46.351Z,100237.16
2023-05-19T21:47:13.152Z,100237.30
2023-05-19T21:49:40.087Z,100238.35
2023-05-19T21:52:07.258Z,100242.13
2023-05-19T21:54:34.176Z,100243.86
2023-05-19T21:57:01.803Z,100241.08
2023-05-19T21:59:28.920Z,100244.94
2023-05-19T22:01:55.961Z,100248.34
2023-05-19T22:04:23.075Z,100246.98
2023-05-19T22:06:49.921Z,100243.92
2023-05-19T22:09:17.489Z,100246.37
2023-05-19T22:11:44.702Z,100244.19
2023-05-19T22:14:12.008Z,100245.69
2023-05-19T22:16:38.785Z,100245.38
2023-05-19T22:19:05.638Z,100249.64
2023-05-19T22:21:32.590Z,100248.85
2023-05-19T22:24:00.110Z,100246.72
2023-05-19T22:26:27.051Z,100245.34
2023-05-19T22:28:54.935Z,100244.52
2023-05-19T22:31:21.713Z,100247.06
2023-05-19T22:33:48.617Z,100245.84
2023-05-19T22:36:15.629Z,100242.77
2023-05-19T22:38:42.465Z,100240.48
2023-05-19T22:41:09.382Z,100242.75
2023-05-19T22:43:37.374Z,100244.89
2023-05-19T22:46:04.722Z,100241.82
2023-05-19T22:48:31.866Z,100247.58
2023-05-19T22:50:58.747Z,100247.08
2023-05-19T22:53:26.162Z,100246.94
2023-05-19T22:55:52.861Z,100251.11
2023-05-19T22:58:19.787Z,100251.27
2023-05-19T23:00:46.769Z,100250.92
2023-05-19T23:03:13.580Z,100250.63
2023-05-19T23:05:40.931Z,100253.89
2023-05-19T23:08:08.089Z,100254.05
2023-05-19T23:10:34.934Z,100253.06
2023-05-19T23:13:01.989Z,100252.11
2023-05-19T23:15:29.147Z,100257.89
2023-05-19T23:17:56.003Z,100256.16
2023-05-19T23:20:23.017Z,100257.57
2023-05-19T23:22:49.941Z,100255.59
2023-05-19T23:25:16.930Z,100255.67
2023-05-19T23:27:43.905Z,100254.60
2023-05-19T23:30:11.239Z,100257.48
2023-05-19T23:32:40.700Z,100255.79
2023-05-19T23:35:11.138Z,100254.30
2023-05-19T23:37:38.865Z,100252.98
2023-05-19T23:40:06.740Z,100248.87
2023-05-19T23:42:34.353Z,100253.23
2023-05-19T23:45:01.696Z,100253.68
2023-05-19T23:47:28.854Z,100255.34
2023-05-19T23:49:55.880Z,100254.03
2023-05-19T23:52:22.645Z,100256.09
2023-05-19T23:54:49.563Z,100257.20
2023-05-19T23:57:16.527Z,100254.16
2023-05-19T23:59:43.524Z,100256.15
